Almere Haven Meer informatie Almere Haven


Onweer radar Meer informatie blitzortung!


Regen radar Meer informatie rain snow radar


Apparatuur in gebruik:

Davis VP2

Meteohub

ALIX 1D

Web-Oke


Het weer levert geen direct gevaar op.    Er zijn geen waarschuwingen afgegeven.

METAR rapporten vliegvelden

   
EHAM - Amsterdam/Schiph, Netherlands
Afstand tot: WZW 42 km
Gewijzigd: 12-07-2020 07:55
Licht bewolkt  
Licht bewolkt  
   Wind: Kalm
Wind: Kalm
Temperatuur: 15°C
Dauwpunt: 12°C
Vochtigheid: 82%
Barometer: 1028 hPa
Bewolking: Licht bewolkt
Zicht: meer dan 10 km
Bewolking: Licht bewolkt 762 m
EHAM 120555Z 00000KT 9999 FEW025 15/12 Q1028 NOSIG
EHDL - Deelen Rnlafb, Netherlands
Afstand tot: ZO 49 km
Gewijzigd: 12-07-2020 08:25
Helder  
Helder  
   Wind: varieert 1.9 km/h
Wind: varieert 1.9 km/h
Temperatuur: 13°C
Dauwpunt: 12°C
Vochtigheid: 94%
Barometer: 1028 hPa
Bewolking: Helder
Zicht: meer dan 10 km
Bewolking: Helder
EHDL 120625Z AUTO VRB01KT 9999 NCD 13/12 Q1028 BLU
EHKD - De Kooy (navy), Netherlands
Afstand tot: NW 72 km
Gewijzigd: 12-07-2020 07:55
Helder  
Helder  
   Wind: NW 9.3 km/h
Wind: NW 9.3 km/h
Temperatuur: 14°C
Dauwpunt: 10°C
Vochtigheid: 77%
Barometer: 1028 hPa
Bewolking: Helder
Zicht: meer dan 10 km
Bewolking: Helder
EHKD 120555Z AUTO 31005KT 270V350 9999 NCD 14/10 Q1028 BLU 28005KT 9999 SCT018
EHRD - Rotterdam Airpor, Netherlands
Afstand tot: ZW 80 km
Gewijzigd: 12-07-2020 07:55
Helder  
Helder  
   Wind: Kalm
Wind: Kalm
Temperatuur: 13°C
Dauwpunt: 12°C
Vochtigheid: 94%
Barometer: 1028 hPa
Bewolking: Helder
Zicht: meer dan 10 km
Bewolking: Helder
EHRD 120555Z AUTO 00000KT 9999 NCD 13/12 Q1028 NOSIG
EHVK - Volkel Rnlafb, Netherlands
Afstand tot: ZZO 87 km
Gewijzigd: 12-07-2020 08:25
Helder  
Helder  
   Wind: Noorden 5.6 km/h
Wind: Noorden 5.6 km/h
Temperatuur: 14°C
Dauwpunt: 12°C
Vochtigheid: 88%
Bewolking: Helder
Zicht: meer dan 10 km
Bewolking: Helder
EHVK 120625Z AUTO 36003KT 320V040 9999 NCD 14/12 Q1
EHLW - Leeuwarden Rnlaf, Netherlands
Afstand tot: NNO 95 km
Gewijzigd: 12-07-2020 08:25
Helder  
Helder  
   Wind: WNW 7.4 km/h
Wind: WNW 7.4 km/h
Temperatuur: 15°C
Dauwpunt: 12°C
Vochtigheid: 82%
Barometer: 1028 hPa
Bewolking: Helder
Zicht: meer dan 10 km
Bewolking: Helder
EHLW 120625Z AUTO 29004KT 250V320 9999 NCD 15/12 Q1028 BLU

Script ontwikkeld door  Saratoga-weather.org Aangepast voor de template door  Weerstation Leuven

U vindt ons ook hier:

Het Weer Aktueel

UK Metoffice

European Weather Network

Weather Underground

Benelux Weer Netwerk

AWEKAS